sensor_id;sensor_type;location;lat;lon;timestamp;P1;durP1;ratioP1;P2;durP2;ratioP2
27796;SDS011;15177;50.844;4.412;2023-04-24T00:01:49;30.40;;;14.83;;
27796;SDS011;15177;50.844;4.412;2023-04-24T00:04:15;33.67;;;15.90;;
27796;SDS011;15177;50.844;4.412;2023-04-24T00:06:42;35.33;;;15.47;;
27796;SDS011;15177;50.844;4.412;2023-04-24T00:09:11;30.80;;;14.33;;
27796;SDS011;15177;50.844;4.412;2023-04-24T00:11:36;25.00;;;14.00;;
27796;SDS011;15177;50.844;4.412;2023-04-24T00:14:02;25.73;;;14.60;;
27796;SDS011;15177;50.844;4.412;2023-04-24T00:16:28;32.00;;;15.90;;
27796;SDS011;15177;50.844;4.412;2023-04-24T00:18:54;25.27;;;15.10;;
27796;SDS011;15177;50.844;4.412;2023-04-24T00:21:21;30.30;;;14.60;;
27796;SDS011;15177;50.844;4.412;2023-04-24T00:23:50;31.33;;;16.63;;
27796;SDS011;15177;50.844;4.412;2023-04-24T00:26:16;29.23;;;15.53;;
27796;SDS011;15177;50.844;4.412;2023-04-24T00:28:41;28.03;;;16.47;;
27796;SDS011;15177;50.844;4.412;2023-04-24T00:31:07;28.50;;;14.63;;
27796;SDS011;15177;50.844;4.412;2023-04-24T00:33:34;28.53;;;14.40;;
27796;SDS011;15177;50.844;4.412;2023-04-24T00:36:00;26.47;;;15.83;;
27796;SDS011;15177;50.844;4.412;2023-04-24T00:38:25;31.40;;;14.80;;
27796;SDS011;15177;50.844;4.412;2023-04-24T00:40:51;28.60;;;16.53;;
27796;SDS011;15177;50.844;4.412;2023-04-24T00:43:17;25.63;;;15.00;;
27796;SDS011;15177;50.844;4.412;2023-04-24T00:45:42;31.60;;;15.73;;
27796;SDS011;15177;50.844;4.412;2023-04-24T00:48:08;27.57;;;15.00;;
27796;SDS011;15177;50.844;4.412;2023-04-24T00:50:35;28.47;;;15.37;;
27796;SDS011;15177;50.844;4.412;2023-04-24T00:53:01;28.77;;;14.80;;
27796;SDS011;15177;50.844;4.412;2023-04-24T00:55:27;30.53;;;15.60;;
27796;SDS011;15177;50.844;4.412;2023-04-24T00:57:52;31.77;;;15.07;;
27796;SDS011;15177;50.844;4.412;2023-04-24T01:00:18;33.63;;;15.70;;
27796;SDS011;15177;50.844;4.412;2023-04-24T01:02:44;25.83;;;15.50;;
27796;SDS011;15177;50.844;4.412;2023-04-24T01:05:11;27.80;;;14.67;;
27796;SDS011;15177;50.844;4.412;2023-04-24T01:07:38;32.67;;;15.00;;
27796;SDS011;15177;50.844;4.412;2023-04-24T01:10:05;29.67;;;14.33;;
27796;SDS011;15177;50.844;4.412;2023-04-24T01:12:33;33.70;;;15.80;;
27796;SDS011;15177;50.844;4.412;2023-04-24T01:14:58;31.57;;;15.77;;
27796;SDS011;15177;50.844;4.412;2023-04-24T01:17:24;28.20;;;15.53;;
27796;SDS011;15177;50.844;4.412;2023-04-24T01:19:51;27.40;;;15.43;;
27796;SDS011;15177;50.844;4.412;2023-04-24T01:22:18;28.13;;;15.77;;
27796;SDS011;15177;50.844;4.412;2023-04-24T01:24:45;30.67;;;16.33;;
27796;SDS011;15177;50.844;4.412;2023-04-24T01:27:12;27.97;;;16.57;;
27796;SDS011;15177;50.844;4.412;2023-04-24T01:29:38;32.27;;;15.87;;
27796;SDS011;15177;50.844;4.412;2023-04-24T01:32:04;28.13;;;14.37;;
27796;SDS011;15177;50.844;4.412;2023-04-24T01:34:31;23.00;;;15.00;;
27796;SDS011;15177;50.844;4.412;2023-04-24T01:36:59;28.97;;;15.17;;
27796;SDS011;15177;50.844;4.412;2023-04-24T01:39:28;30.10;;;14.57;;
27796;SDS011;15177;50.844;4.412;2023-04-24T01:41:57;23.57;;;14.07;;
27796;SDS011;15177;50.844;4.412;2023-04-24T01:44:23;26.33;;;13.43;;
27796;SDS011;15177;50.844;4.412;2023-04-24T01:46:48;24.83;;;13.00;;
27796;SDS011;15177;50.844;4.412;2023-04-24T01:49:15;25.00;;;14.57;;
27796;SDS011;15177;50.844;4.412;2023-04-24T01:51:42;27.17;;;14.60;;
27796;SDS011;15177;50.844;4.412;2023-04-24T01:54:08;20.33;;;13.87;;
27796;SDS011;15177;50.844;4.412;2023-04-24T01:56:34;30.43;;;15.80;;
27796;SDS011;15177;50.844;4.412;2023-04-24T01:59:02;27.43;;;14.47;;
27796;SDS011;15177;50.844;4.412;2023-04-24T02:01:32;24.97;;;15.27;;
27796;SDS011;15177;50.844;4.412;2023-04-24T02:04:01;23.87;;;12.87;;
27796;SDS011;15177;50.844;4.412;2023-04-24T02:06:29;27.10;;;13.70;;
27796;SDS011;15177;50.844;4.412;2023-04-24T02:08:56;25.63;;;15.10;;
27796;SDS011;15177;50.844;4.412;2023-04-24T02:11:22;27.23;;;15.00;;
27796;SDS011;15177;50.844;4.412;2023-04-24T02:13:48;27.50;;;15.10;;
27796;SDS011;15177;50.844;4.412;2023-04-24T02:16:15;29.27;;;16.63;;
27796;SDS011;15177;50.844;4.412;2023-04-24T02:18:41;34.03;;;16.03;;
27796;SDS011;15177;50.844;4.412;2023-04-24T02:21:08;35.13;;;17.80;;
27796;SDS011;15177;50.844;4.412;2023-04-24T02:23:34;31.03;;;17.17;;
27796;SDS011;15177;50.844;4.412;2023-04-24T02:26:00;31.60;;;17.93;;
27796;SDS011;15177;50.844;4.412;2023-04-24T02:28:26;35.73;;;17.53;;
27796;SDS011;15177;50.844;4.412;2023-04-24T02:30:53;30.17;;;16.87;;
27796;SDS011;15177;50.844;4.412;2023-04-24T02:33:18;30.70;;;18.47;;
27796;SDS011;15177;50.844;4.412;2023-04-24T02:35:44;28.07;;;16.80;;
27796;SDS011;15177;50.844;4.412;2023-04-24T02:38:10;30.63;;;16.60;;
27796;SDS011;15177;50.844;4.412;2023-04-24T02:40:36;29.80;;;16.60;;
27796;SDS011;15177;50.844;4.412;2023-04-24T02:43:01;30.73;;;17.77;;
27796;SDS011;15177;50.844;4.412;2023-04-24T02:45:27;28.73;;;16.53;;
27796;SDS011;15177;50.844;4.412;2023-04-24T02:47:53;29.77;;;16.27;;
27796;SDS011;15177;50.844;4.412;2023-04-24T02:50:18;30.23;;;14.57;;
27796;SDS011;15177;50.844;4.412;2023-04-24T02:52:44;24.57;;;14.80;;
27796;SDS011;15177;50.844;4.412;2023-04-24T02:55:10;25.00;;;15.27;;
27796;SDS011;15177;50.844;4.412;2023-04-24T02:57:37;25.00;;;15.33;;
27796;SDS011;15177;50.844;4.412;2023-04-24T03:00:03;25.97;;;14.50;;
27796;SDS011;15177;50.844;4.412;2023-04-24T03:02:32;23.70;;;15.90;;
27796;SDS011;15177;50.844;4.412;2023-04-24T03:04:57;22.27;;;15.00;;
27796;SDS011;15177;50.844;4.412;2023-04-24T03:07:23;22.43;;;14.20;;
27796;SDS011;15177;50.844;4.412;2023-04-24T03:09:49;25.63;;;14.13;;
27796;SDS011;15177;50.844;4.412;2023-04-24T03:12:14;26.10;;;13.40;;
27796;SDS011;15177;50.844;4.412;2023-04-24T03:14:42;24.30;;;13.40;;
27796;SDS011;15177;50.844;4.412;2023-04-24T03:17:08;23.10;;;13.00;;
27796;SDS011;15177;50.844;4.412;2023-04-24T03:19:34;22.83;;;12.90;;
27796;SDS011;15177;50.844;4.412;2023-04-24T03:22:01;23.83;;;12.30;;
27796;SDS011;15177;50.844;4.412;2023-04-24T03:24:29;19.57;;;11.33;;
27796;SDS011;15177;50.844;4.412;2023-04-24T03:26:55;22.87;;;12.00;;
27796;SDS011;15177;50.844;4.412;2023-04-24T03:29:21;21.97;;;11.37;;
27796;SDS011;15177;50.844;4.412;2023-04-24T03:31:48;21.40;;;12.23;;
27796;SDS011;15177;50.844;4.412;2023-04-24T03:34:13;26.30;;;12.80;;
27796;SDS011;15177;50.844;4.412;2023-04-24T03:36:39;19.43;;;12.00;;
27796;SDS011;15177;50.844;4.412;2023-04-24T03:39:05;21.47;;;12.80;;
27796;SDS011;15177;50.844;4.412;2023-04-24T03:41:30;22.57;;;13.27;;
27796;SDS011;15177;50.844;4.412;2023-04-24T03:43:56;23.60;;;12.03;;
27796;SDS011;15177;50.844;4.412;2023-04-24T03:46:22;21.83;;;12.40;;
27796;SDS011;15177;50.844;4.412;2023-04-24T03:48:47;19.10;;;12.00;;
27796;SDS011;15177;50.844;4.412;2023-04-24T03:51:14;21.50;;;11.93;;
27796;SDS011;15177;50.844;4.412;2023-04-24T03:53:40;19.57;;;11.13;;
27796;SDS011;15177;50.844;4.412;2023-04-24T03:56:06;15.60;;;11.07;;
27796;SDS011;15177;50.844;4.412;2023-04-24T03:58:31;16.40;;;11.70;;
27796;SDS011;15177;50.844;4.412;2023-04-24T04:00:57;20.27;;;11.50;;
27796;SDS011;15177;50.844;4.412;2023-04-24T04:03:23;18.40;;;10.40;;
27796;SDS011;15177;50.844;4.412;2023-04-24T04:05:51;16.00;;;9.33;;
27796;SDS011;15177;50.844;4.412;2023-04-24T04:08:18;14.97;;;9.10;;
27796;SDS011;15177;50.844;4.412;2023-04-24T04:10:43;16.10;;;9.40;;
27796;SDS011;15177;50.844;4.412;2023-04-24T04:13:09;14.00;;;8.47;;
27796;SDS011;15177;50.844;4.412;2023-04-24T04:15:34;13.93;;;8.97;;
27796;SDS011;15177;50.844;4.412;2023-04-24T04:18:00;19.37;;;8.37;;
27796;SDS011;15177;50.844;4.412;2023-04-24T04:20:26;18.33;;;8.90;;
27796;SDS011;15177;50.844;4.412;2023-04-24T04:22:52;17.43;;;8.63;;
27796;SDS011;15177;50.844;4.412;2023-04-24T04:25:17;16.10;;;8.63;;
27796;SDS011;15177;50.844;4.412;2023-04-24T04:27:44;11.47;;;7.70;;
27796;SDS011;15177;50.844;4.412;2023-04-24T04:30:12;14.27;;;7.60;;
27796;SDS011;15177;50.844;4.412;2023-04-24T04:32:40;14.50;;;8.47;;
27796;SDS011;15177;50.844;4.412;2023-04-24T04:35:06;17.53;;;8.43;;
27796;SDS011;15177;50.844;4.412;2023-04-24T04:37:32;14.43;;;8.33;;
27796;SDS011;15177;50.844;4.412;2023-04-24T04:39:58;12.00;;;7.53;;
27796;SDS011;15177;50.844;4.412;2023-04-24T04:42:25;13.03;;;7.83;;
27796;SDS011;15177;50.844;4.412;2023-04-24T04:44:52;11.03;;;7.27;;
27796;SDS011;15177;50.844;4.412;2023-04-24T04:47:18;14.87;;;8.13;;
27796;SDS011;15177;50.844;4.412;2023-04-24T04:49:46;15.83;;;8.27;;
27796;SDS011;15177;50.844;4.412;2023-04-24T04:52:13;11.03;;;8.00;;
27796;SDS011;15177;50.844;4.412;2023-04-24T04:54:38;21.40;;;9.77;;
27796;SDS011;15177;50.844;4.412;2023-04-24T04:57:04;20.57;;;9.63;;
27796;SDS011;15177;50.844;4.412;2023-04-24T04:59:30;19.67;;;9.50;;
27796;SDS011;15177;50.844;4.412;2023-04-24T05:01:56;19.63;;;10.70;;
27796;SDS011;15177;50.844;4.412;2023-04-24T05:04:22;21.43;;;11.10;;
27796;SDS011;15177;50.844;4.412;2023-04-24T05:06:48;19.80;;;10.97;;
27796;SDS011;15177;50.844;4.412;2023-04-24T05:09:16;28.20;;;12.43;;
27796;SDS011;15177;50.844;4.412;2023-04-24T05:11:41;24.63;;;13.33;;
27796;SDS011;15177;50.844;4.412;2023-04-24T05:14:07;22.37;;;12.40;;
27796;SDS011;15177;50.844;4.412;2023-04-24T05:16:33;30.63;;;13.63;;
27796;SDS011;15177;50.844;4.412;2023-04-24T05:18:58;26.87;;;13.80;;
27796;SDS011;15177;50.844;4.412;2023-04-24T05:21:24;25.97;;;13.17;;
27796;SDS011;15177;50.844;4.412;2023-04-24T05:23:51;24.43;;;13.73;;
27796;SDS011;15177;50.844;4.412;2023-04-24T05:26:17;24.87;;;13.83;;
27796;SDS011;15177;50.844;4.412;2023-04-24T05:28:43;23.33;;;11.77;;
27796;SDS011;15177;50.844;4.412;2023-04-24T05:31:08;23.73;;;13.87;;
27796;SDS011;15177;50.844;4.412;2023-04-24T05:33:34;25.37;;;13.93;;
27796;SDS011;15177;50.844;4.412;2023-04-24T05:36:00;27.60;;;13.40;;
27796;SDS011;15177;50.844;4.412;2023-04-24T05:38:25;27.73;;;13.90;;
27796;SDS011;15177;50.844;4.412;2023-04-24T05:40:51;28.23;;;13.40;;
27796;SDS011;15177;50.844;4.412;2023-04-24T05:43:17;24.60;;;13.87;;
27796;SDS011;15177;50.844;4.412;2023-04-24T05:45:43;24.13;;;13.47;;
27796;SDS011;15177;50.844;4.412;2023-04-24T05:48:08;29.73;;;13.90;;
27796;SDS011;15177;50.844;4.412;2023-04-24T05:50:34;29.43;;;14.57;;
27796;SDS011;15177;50.844;4.412;2023-04-24T05:53:00;25.27;;;13.87;;
27796;SDS011;15177;50.844;4.412;2023-04-24T05:55:27;21.40;;;12.87;;
27796;SDS011;15177;50.844;4.412;2023-04-24T05:57:53;39.73;;;16.53;;
27796;SDS011;15177;50.844;4.412;2023-04-24T06:00:19;24.40;;;14.03;;
27796;SDS011;15177;50.844;4.412;2023-04-24T06:02:45;24.63;;;13.87;;
27796;SDS011;15177;50.844;4.412;2023-04-24T06:05:12;26.80;;;13.80;;
27796;SDS011;15177;50.844;4.412;2023-04-24T06:07:37;30.80;;;15.87;;
27796;SDS011;15177;50.844;4.412;2023-04-24T06:10:03;28.03;;;15.33;;
27796;SDS011;15177;50.844;4.412;2023-04-24T06:12:29;27.73;;;14.00;;
27796;SDS011;15177;50.844;4.412;2023-04-24T06:14:56;27.83;;;14.07;;
27796;SDS011;15177;50.844;4.412;2023-04-24T06:17:21;25.90;;;14.43;;
27796;SDS011;15177;50.844;4.412;2023-04-24T06:19:47;30.67;;;14.40;;
27796;SDS011;15177;50.844;4.412;2023-04-24T06:22:13;35.50;;;15.57;;
27796;SDS011;15177;50.844;4.412;2023-04-24T06:24:41;29.83;;;14.47;;
27796;SDS011;15177;50.844;4.412;2023-04-24T06:27:07;35.23;;;14.73;;
27796;SDS011;15177;50.844;4.412;2023-04-24T06:29:33;31.03;;;14.63;;
27796;SDS011;15177;50.844;4.412;2023-04-24T06:31:58;33.23;;;15.20;;
27796;SDS011;15177;50.844;4.412;2023-04-24T06:34:25;26.37;;;15.30;;
27796;SDS011;15177;50.844;4.412;2023-04-24T06:36:51;33.30;;;16.17;;
27796;SDS011;15177;50.844;4.412;2023-04-24T06:39:17;32.60;;;15.93;;
27796;SDS011;15177;50.844;4.412;2023-04-24T06:41:42;28.67;;;16.13;;
27796;SDS011;15177;50.844;4.412;2023-04-24T06:44:10;30.43;;;15.47;;
27796;SDS011;15177;50.844;4.412;2023-04-24T06:46:36;32.43;;;17.30;;
27796;SDS011;15177;50.844;4.412;2023-04-24T06:49:02;28.93;;;17.40;;
27796;SDS011;15177;50.844;4.412;2023-04-24T06:51:27;30.10;;;16.63;;
27796;SDS011;15177;50.844;4.412;2023-04-24T06:53:54;30.77;;;16.27;;
27796;SDS011;15177;50.844;4.412;2023-04-24T06:56:21;28.40;;;15.97;;
27796;SDS011;15177;50.844;4.412;2023-04-24T06:58:47;37.53;;;17.70;;
27796;SDS011;15177;50.844;4.412;2023-04-24T07:01:13;34.97;;;18.17;;
27796;SDS011;15177;50.844;4.412;2023-04-24T07:03:40;33.73;;;17.77;;
27796;SDS011;15177;50.844;4.412;2023-04-24T07:06:07;41.90;;;17.63;;
27796;SDS011;15177;50.844;4.412;2023-04-24T07:08:33;32.80;;;17.10;;
27796;SDS011;15177;50.844;4.412;2023-04-24T07:11:00;27.27;;;16.43;;
27796;SDS011;15177;50.844;4.412;2023-04-24T07:13:27;31.90;;;16.43;;
27796;SDS011;15177;50.844;4.412;2023-04-24T07:16:00;37.03;;;16.57;;
27796;SDS011;15177;50.844;4.412;2023-04-24T07:18:26;30.47;;;17.40;;
27796;SDS011;15177;50.844;4.412;2023-04-24T07:20:53;33.13;;;15.47;;
27796;SDS011;15177;50.844;4.412;2023-04-24T07:23:20;37.37;;;15.63;;
27796;SDS011;15177;50.844;4.412;2023-04-24T07:25:47;29.47;;;14.73;;
27796;SDS011;15177;50.844;4.412;2023-04-24T07:28:15;24.17;;;13.30;;
27796;SDS011;15177;50.844;4.412;2023-04-24T07:30:44;24.40;;;13.17;;
27796;SDS011;15177;50.844;4.412;2023-04-24T07:33:12;19.10;;;10.73;;
27796;SDS011;15177;50.844;4.412;2023-04-24T07:35:38;30.83;;;11.83;;
27796;SDS011;15177;50.844;4.412;2023-04-24T07:38:08;23.17;;;10.83;;
27796;SDS011;15177;50.844;4.412;2023-04-24T07:40:35;21.23;;;10.23;;
27796;SDS011;15177;50.844;4.412;2023-04-24T07:43:01;22.87;;;10.27;;
27796;SDS011;15177;50.844;4.412;2023-04-24T07:45:27;20.97;;;9.30;;
27796;SDS011;15177;50.844;4.412;2023-04-24T07:47:53;18.30;;;8.10;;
27796;SDS011;15177;50.844;4.412;2023-04-24T07:50:18;16.47;;;8.97;;
27796;SDS011;15177;50.844;4.412;2023-04-24T07:52:46;24.23;;;10.83;;
27796;SDS011;15177;50.844;4.412;2023-04-24T07:55:14;24.53;;;11.80;;
27796;SDS011;15177;50.844;4.412;2023-04-24T07:57:39;26.20;;;12.60;;
27796;SDS011;15177;50.844;4.412;2023-04-24T08:00:06;30.70;;;14.63;;
27796;SDS011;15177;50.844;4.412;2023-04-24T08:02:33;32.87;;;13.33;;
27796;SDS011;15177;50.844;4.412;2023-04-24T08:05:00;27.83;;;13.47;;
27796;SDS011;15177;50.844;4.412;2023-04-24T08:07:29;26.90;;;12.70;;
27796;SDS011;15177;50.844;4.412;2023-04-24T08:09:57;30.17;;;12.03;;
27796;SDS011;15177;50.844;4.412;2023-04-24T08:12:24;23.50;;;11.63;;
27796;SDS011;15177;50.844;4.412;2023-04-24T08:14:50;23.47;;;11.33;;
27796;SDS011;15177;50.844;4.412;2023-04-24T08:17:17;23.37;;;10.87;;
27796;SDS011;15177;50.844;4.412;2023-04-24T08:19:43;22.73;;;10.60;;
27796;SDS011;15177;50.844;4.412;2023-04-24T08:22:13;23.17;;;9.80;;
27796;SDS011;15177;50.844;4.412;2023-04-24T08:24:42;21.40;;;10.10;;
27796;SDS011;15177;50.844;4.412;2023-04-24T08:27:09;21.57;;;8.90;;
27796;SDS011;15177;50.844;4.412;2023-04-24T08:29:35;18.40;;;8.33;;
27796;SDS011;15177;50.844;4.412;2023-04-24T08:32:01;26.10;;;8.87;;
27796;SDS011;15177;50.844;4.412;2023-04-24T08:34:28;26.37;;;8.70;;
27796;SDS011;15177;50.844;4.412;2023-04-24T08:36:54;19.73;;;8.43;;
27796;SDS011;15177;50.844;4.412;2023-04-24T08:39:20;26.60;;;10.23;;
27796;SDS011;15177;50.844;4.412;2023-04-24T08:41:46;23.63;;;8.00;;
27796;SDS011;15177;50.844;4.412;2023-04-24T08:44:14;13.63;;;7.80;;
27796;SDS011;15177;50.844;4.412;2023-04-24T08:46:42;16.67;;;8.27;;
27796;SDS011;15177;50.844;4.412;2023-04-24T08:49:12;15.93;;;6.57;;
27796;SDS011;15177;50.844;4.412;2023-04-24T08:51:41;12.70;;;5.93;;
27796;SDS011;15177;50.844;4.412;2023-04-24T08:54:07;9.50;;;5.43;;
27796;SDS011;15177;50.844;4.412;2023-04-24T08:56:33;13.10;;;5.50;;
27796;SDS011;15177;50.844;4.412;2023-04-24T08:59:03;12.73;;;4.75;;
27796;SDS011;15177;50.844;4.412;2023-04-24T09:01:30;14.77;;;5.03;;
27796;SDS011;15177;50.844;4.412;2023-04-24T09:04:00;13.10;;;4.80;;
27796;SDS011;15177;50.844;4.412;2023-04-24T09:06:32;16.92;;;6.00;;
27796;SDS011;15177;50.844;4.412;2023-04-24T09:09:01;10.32;;;4.63;;
27796;SDS011;15177;50.844;4.412;2023-04-24T09:11:29;15.50;;;5.03;;
27796;SDS011;15177;50.844;4.412;2023-04-24T09:13:56;15.55;;;5.35;;
27796;SDS011;15177;50.844;4.412;2023-04-24T09:16:22;14.95;;;4.55;;
27796;SDS011;15177;50.844;4.412;2023-04-24T09:18:50;14.68;;;4.95;;
27796;SDS011;15177;50.844;4.412;2023-04-24T09:21:16;10.60;;;4.32;;
27796;SDS011;15177;50.844;4.412;2023-04-24T09:23:45;12.40;;;4.50;;
27796;SDS011;15177;50.844;4.412;2023-04-24T09:26:10;11.98;;;5.03;;
27796;SDS011;15177;50.844;4.412;2023-04-24T09:28:37;20.08;;;4.57;;
27796;SDS011;15177;50.844;4.412;2023-04-24T09:33:53;14.57;;;4.55;;
27796;SDS011;15177;50.844;4.412;2023-04-24T09:36:26;9.65;;;4.45;;
27796;SDS011;15177;50.844;4.412;2023-04-24T09:39:03;15.52;;;4.88;;
27796;SDS011;15177;50.844;4.412;2023-04-24T09:41:31;15.50;;;6.22;;
27796;SDS011;15177;50.844;4.412;2023-04-24T09:43:58;14.23;;;5.35;;
27796;SDS011;15177;50.844;4.412;2023-04-24T09:46:36;13.38;;;4.50;;
27796;SDS011;15177;50.844;4.412;2023-04-24T09:49:09;13.88;;;4.75;;
27796;SDS011;15177;50.844;4.412;2023-04-24T09:51:37;14.93;;;4.68;;
27796;SDS011;15177;50.844;4.412;2023-04-24T09:56:42;11.88;;;3.88;;
27796;SDS011;15177;50.844;4.412;2023-04-24T09:59:10;17.00;;;5.10;;
27796;SDS011;15177;50.844;4.412;2023-04-24T10:01:36;13.55;;;5.25;;
27796;SDS011;15177;50.844;4.412;2023-04-24T10:04:03;12.55;;;4.38;;
27796;SDS011;15177;50.844;4.412;2023-04-24T10:06:35;13.77;;;4.57;;
27796;SDS011;15177;50.844;4.412;2023-04-24T10:09:01;12.57;;;4.50;;
27796;SDS011;15177;50.844;4.412;2023-04-24T10:11:28;10.85;;;4.53;;
27796;SDS011;15177;50.844;4.412;2023-04-24T10:13:57;12.23;;;4.35;;
27796;SDS011;15177;50.844;4.412;2023-04-24T10:16:25;8.00;;;4.10;;
27796;SDS011;15177;50.844;4.412;2023-04-24T10:18:52;12.07;;;4.15;;
27796;SDS011;15177;50.844;4.412;2023-04-24T10:21:20;13.95;;;4.90;;
27796;SDS011;15177;50.844;4.412;2023-04-24T10:23:46;12.05;;;4.53;;
27796;SDS011;15177;50.844;4.412;2023-04-24T10:26:14;12.52;;;4.10;;
27796;SDS011;15177;50.844;4.412;2023-04-24T10:28:46;10.68;;;4.82;;
27796;SDS011;15177;50.844;4.412;2023-04-24T10:31:12;10.20;;;4.70;;
27796;SDS011;15177;50.844;4.412;2023-04-24T10:33:42;12.60;;;4.95;;
27796;SDS011;15177;50.844;4.412;2023-04-24T10:36:10;12.77;;;5.95;;
27796;SDS011;15177;50.844;4.412;2023-04-24T10:38:39;12.57;;;5.30;;
27796;SDS011;15177;50.844;4.412;2023-04-24T10:41:07;12.82;;;6.03;;
27796;SDS011;15177;50.844;4.412;2023-04-24T10:43:46;13.43;;;5.10;;
27796;SDS011;15177;50.844;4.412;2023-04-24T10:46:16;14.70;;;5.00;;
27796;SDS011;15177;50.844;4.412;2023-04-24T10:48:51;11.02;;;5.63;;
27796;SDS011;15177;50.844;4.412;2023-04-24T10:51:21;8.75;;;4.90;;
27796;SDS011;15177;50.844;4.412;2023-04-24T10:53:49;9.80;;;4.07;;
27796;SDS011;15177;50.844;4.412;2023-04-24T10:56:16;13.95;;;5.07;;
27796;SDS011;15177;50.844;4.412;2023-04-24T10:58:45;16.33;;;4.85;;
27796;SDS011;15177;50.844;4.412;2023-04-24T11:03:55;11.68;;;5.00;;
27796;SDS011;15177;50.844;4.412;2023-04-24T11:06:29;11.18;;;5.38;;
27796;SDS011;15177;50.844;4.412;2023-04-24T11:09:07;10.23;;;5.55;;
27796;SDS011;15177;50.844;4.412;2023-04-24T11:11:34;10.27;;;5.45;;
27796;SDS011;15177;50.844;4.412;2023-04-24T11:14:02;14.48;;;5.70;;
27796;SDS011;15177;50.844;4.412;2023-04-24T11:16:32;11.07;;;5.97;;
27796;SDS011;15177;50.844;4.412;2023-04-24T11:27:17;18.23;;;6.47;;
27796;SDS011;15177;50.844;4.412;2023-04-24T11:29:48;13.27;;;5.80;;
27796;SDS011;15177;50.844;4.412;2023-04-24T11:32:47;10.02;;;5.65;;
27796;SDS011;15177;50.844;4.412;2023-04-24T11:35:17;11.40;;;5.88;;
27796;SDS011;15177;50.844;4.412;2023-04-24T11:37:49;9.27;;;5.43;;
27796;SDS011;15177;50.844;4.412;2023-04-24T11:40:17;8.90;;;5.25;;
27796;SDS011;15177;50.844;4.412;2023-04-24T11:42:49;10.75;;;5.15;;
27796;SDS011;15177;50.844;4.412;2023-04-24T11:45:17;8.38;;;5.05;;
27796;SDS011;15177;50.844;4.412;2023-04-24T11:47:57;11.13;;;4.97;;
27796;SDS011;15177;50.844;4.412;2023-04-24T11:50:24;11.50;;;5.25;;
27796;SDS011;15177;50.844;4.412;2023-04-24T11:52:52;9.18;;;5.85;;
27796;SDS011;15177;50.844;4.412;2023-04-24T11:57:50;11.68;;;6.65;;
27796;SDS011;15177;50.844;4.412;2023-04-24T12:02:49;13.50;;;6.28;;
27796;SDS011;15177;50.844;4.412;2023-04-24T12:07:48;11.18;;;5.57;;
27796;SDS011;15177;50.844;4.412;2023-04-24T12:10:14;10.45;;;5.65;;
27796;SDS011;15177;50.844;4.412;2023-04-24T12:12:44;9.80;;;5.57;;
27796;SDS011;15177;50.844;4.412;2023-04-24T12:15:11;11.57;;;6.50;;
27796;SDS011;15177;50.844;4.412;2023-04-24T12:17:40;9.90;;;5.75;;
27796;SDS011;15177;50.844;4.412;2023-04-24T12:20:07;12.15;;;6.32;;
27796;SDS011;15177;50.844;4.412;2023-04-24T12:22:46;13.52;;;6.60;;
27796;SDS011;15177;50.844;4.412;2023-04-24T12:25:18;15.02;;;6.82;;
27796;SDS011;15177;50.844;4.412;2023-04-24T12:27:46;11.85;;;6.10;;
27796;SDS011;15177;50.844;4.412;2023-04-24T12:30:16;12.32;;;6.20;;
27796;SDS011;15177;50.844;4.412;2023-04-24T12:32:43;10.90;;;6.03;;
27796;SDS011;15177;50.844;4.412;2023-04-24T12:35:10;9.00;;;6.00;;
27796;SDS011;15177;50.844;4.412;2023-04-24T12:37:36;15.10;;;6.38;;
27796;SDS011;15177;50.844;4.412;2023-04-24T12:40:06;8.50;;;5.47;;
27796;SDS011;15177;50.844;4.412;2023-04-24T12:42:41;11.20;;;6.50;;
27796;SDS011;15177;50.844;4.412;2023-04-24T12:45:08;9.43;;;4.80;;
27796;SDS011;15177;50.844;4.412;2023-04-24T12:47:38;7.93;;;4.97;;
27796;SDS011;15177;50.844;4.412;2023-04-24T12:50:09;9.73;;;4.63;;
27796;SDS011;15177;50.844;4.412;2023-04-24T12:52:36;5.40;;;3.85;;
27796;SDS011;15177;50.844;4.412;2023-04-24T12:55:04;8.45;;;4.78;;
27796;SDS011;15177;50.844;4.412;2023-04-24T12:57:33;9.60;;;4.82;;
27796;SDS011;15177;50.844;4.412;2023-04-24T12:59:59;14.43;;;5.25;;
27796;SDS011;15177;50.844;4.412;2023-04-24T13:02:26;7.13;;;4.70;;
27796;SDS011;15177;50.844;4.412;2023-04-24T13:04:54;12.55;;;4.93;;
27796;SDS011;15177;50.844;4.412;2023-04-24T13:07:20;10.05;;;4.45;;
27796;SDS011;15177;50.844;4.412;2023-04-24T13:09:47;6.50;;;3.70;;
27796;SDS011;15177;50.844;4.412;2023-04-24T13:12:13;10.52;;;4.13;;
27796;SDS011;15177;50.844;4.412;2023-04-24T13:14:39;7.60;;;4.43;;
27796;SDS011;15177;50.844;4.412;2023-04-24T13:17:05;8.48;;;4.03;;
27796;SDS011;15177;50.844;4.412;2023-04-24T13:19:36;8.68;;;4.00;;
27796;SDS011;15177;50.844;4.412;2023-04-24T13:22:02;12.00;;;4.50;;
27796;SDS011;15177;50.844;4.412;2023-04-24T13:24:28;9.68;;;4.07;;
27796;SDS011;15177;50.844;4.412;2023-04-24T13:26:53;9.20;;;4.10;;
27796;SDS011;15177;50.844;4.412;2023-04-24T13:29:19;7.55;;;3.95;;
27796;SDS011;15177;50.844;4.412;2023-04-24T13:31:47;4.35;;;3.22;;
27796;SDS011;15177;50.844;4.412;2023-04-24T13:34:16;5.93;;;3.60;;
27796;SDS011;15177;50.844;4.412;2023-04-24T13:37:19;6.35;;;3.38;;
27796;SDS011;15177;50.844;4.412;2023-04-24T13:39:46;9.32;;;3.13;;
27796;SDS011;15177;50.844;4.412;2023-04-24T13:42:12;5.95;;;3.40;;
27796;SDS011;15177;50.844;4.412;2023-04-24T13:44:37;5.68;;;3.35;;
27796;SDS011;15177;50.844;4.412;2023-04-24T13:47:03;7.05;;;3.08;;
27796;SDS011;15177;50.844;4.412;2023-04-24T13:49:29;8.55;;;3.25;;
27796;SDS011;15177;50.844;4.412;2023-04-24T13:51:55;5.95;;;3.13;;
27796;SDS011;15177;50.844;4.412;2023-04-24T13:54:21;6.15;;;3.15;;
27796;SDS011;15177;50.844;4.412;2023-04-24T13:56:48;6.72;;;3.72;;
27796;SDS011;15177;50.844;4.412;2023-04-24T13:59:14;6.13;;;2.97;;
27796;SDS011;15177;50.844;4.412;2023-04-24T14:01:40;8.50;;;3.05;;
27796;SDS011;15177;50.844;4.412;2023-04-24T14:04:05;7.13;;;3.60;;
27796;SDS011;15177;50.844;4.412;2023-04-24T14:06:31;6.45;;;3.15;;
27796;SDS011;15177;50.844;4.412;2023-04-24T14:08:57;5.60;;;2.90;;
27796;SDS011;15177;50.844;4.412;2023-04-24T14:11:23;5.70;;;2.63;;
27796;SDS011;15177;50.844;4.412;2023-04-24T14:13:49;7.60;;;2.47;;
27796;SDS011;15177;50.844;4.412;2023-04-24T14:16:18;4.88;;;2.40;;
27796;SDS011;15177;50.844;4.412;2023-04-24T14:18:44;6.97;;;3.08;;
27796;SDS011;15177;50.844;4.412;2023-04-24T14:21:10;5.00;;;2.20;;
27796;SDS011;15177;50.844;4.412;2023-04-24T14:23:36;7.20;;;2.83;;
27796;SDS011;15177;50.844;4.412;2023-04-24T14:26:02;5.82;;;2.20;;
27796;SDS011;15177;50.844;4.412;2023-04-24T14:28:28;7.75;;;2.33;;
27796;SDS011;15177;50.844;4.412;2023-04-24T14:30:54;3.55;;;1.88;;
27796;SDS011;15177;50.844;4.412;2023-04-24T14:33:20;4.90;;;2.03;;
27796;SDS011;15177;50.844;4.412;2023-04-24T14:35:46;6.80;;;2.45;;
27796;SDS011;15177;50.844;4.412;2023-04-24T14:38:14;7.00;;;2.45;;
27796;SDS011;15177;50.844;4.412;2023-04-24T14:40:40;5.70;;;2.45;;
27796;SDS011;15177;50.844;4.412;2023-04-24T14:43:07;9.07;;;2.70;;
27796;SDS011;15177;50.844;4.412;2023-04-24T14:45:33;3.80;;;1.92;;
27796;SDS011;15177;50.844;4.412;2023-04-24T14:48:02;9.00;;;3.25;;
27796;SDS011;15177;50.844;4.412;2023-04-24T14:50:29;7.38;;;2.60;;
27796;SDS011;15177;50.844;4.412;2023-04-24T14:52:55;6.90;;;2.67;;
27796;SDS011;15177;50.844;4.412;2023-04-24T14:55:22;6.85;;;2.45;;